sensor_id;sensor_type;location;lat;lon;timestamp;P1;durP1;ratioP1;P2;durP2;ratioP2
58360;SDS011;44164;44.954;10.068;2022-11-22T00:00:21;5.07;;;3.80;;
58360;SDS011;44164;44.954;10.068;2022-11-22T00:02:49;3.97;;;3.45;;
58360;SDS011;44164;44.954;10.068;2022-11-22T00:05:16;5.47;;;3.55;;
58360;SDS011;44164;44.954;10.068;2022-11-22T00:07:42;4.70;;;3.90;;
58360;SDS011;44164;44.954;10.068;2022-11-22T00:10:09;4.30;;;3.53;;
58360;SDS011;44164;44.954;10.068;2022-11-22T00:15:02;5.25;;;3.95;;
58360;SDS011;44164;44.954;10.068;2022-11-22T00:17:30;4.40;;;3.78;;
58360;SDS011;44164;44.954;10.068;2022-11-22T00:37:39;4.75;;;3.67;;
58360;SDS011;44164;44.954;10.068;2022-11-22T00:40:05;5.15;;;3.75;;
58360;SDS011;44164;44.954;10.068;2022-11-22T00:42:32;4.45;;;3.50;;
58360;SDS011;44164;44.954;10.068;2022-11-22T00:44:58;4.45;;;3.38;;
58360;SDS011;44164;44.954;10.068;2022-11-22T00:47:24;4.10;;;3.30;;
58360;SDS011;44164;44.954;10.068;2022-11-22T00:49:50;4.88;;;3.25;;
58360;SDS011;44164;44.954;10.068;2022-11-22T00:52:16;4.97;;;3.47;;
58360;SDS011;44164;44.954;10.068;2022-11-22T00:54:42;4.38;;;3.22;;
58360;SDS011;44164;44.954;10.068;2022-11-22T00:57:10;4.68;;;3.83;;
58360;SDS011;44164;44.954;10.068;2022-11-22T00:59:36;4.57;;;3.63;;
58360;SDS011;44164;44.954;10.068;2022-11-22T01:02:02;4.45;;;3.50;;
58360;SDS011;44164;44.954;10.068;2022-11-22T01:04:28;4.40;;;3.60;;
58360;SDS011;44164;44.954;10.068;2022-11-22T01:06:54;4.38;;;3.45;;
58360;SDS011;44164;44.954;10.068;2022-11-22T01:09:21;3.50;;;3.20;;
58360;SDS011;44164;44.954;10.068;2022-11-22T01:11:48;3.90;;;2.88;;
58360;SDS011;44164;44.954;10.068;2022-11-22T01:14:15;4.10;;;3.45;;
58360;SDS011;44164;44.954;10.068;2022-11-22T01:16:42;4.82;;;3.95;;
58360;SDS011;44164;44.954;10.068;2022-11-22T01:19:08;3.53;;;2.92;;
58360;SDS011;44164;44.954;10.068;2022-11-22T01:21:34;5.72;;;3.65;;
58360;SDS011;44164;44.954;10.068;2022-11-22T01:24:00;5.20;;;3.40;;
58360;SDS011;44164;44.954;10.068;2022-11-22T01:26:26;5.20;;;3.25;;
58360;SDS011;44164;44.954;10.068;2022-11-22T01:28:53;4.30;;;3.20;;
58360;SDS011;44164;44.954;10.068;2022-11-22T01:31:19;4.70;;;3.20;;
58360;SDS011;44164;44.954;10.068;2022-11-22T01:33:45;4.55;;;3.60;;
58360;SDS011;44164;44.954;10.068;2022-11-22T01:36:11;4.13;;;3.40;;
58360;SDS011;44164;44.954;10.068;2022-11-22T01:38:37;4.30;;;3.40;;
58360;SDS011;44164;44.954;10.068;2022-11-22T01:41:03;4.07;;;3.17;;
58360;SDS011;44164;44.954;10.068;2022-11-22T01:43:29;4.55;;;3.42;;
58360;SDS011;44164;44.954;10.068;2022-11-22T01:45:55;3.85;;;3.20;;
58360;SDS011;44164;44.954;10.068;2022-11-22T01:48:24;3.70;;;3.28;;
58360;SDS011;44164;44.954;10.068;2022-11-22T01:50:55;4.40;;;3.13;;
58360;SDS011;44164;44.954;10.068;2022-11-22T01:53:27;3.08;;;2.65;;
58360;SDS011;44164;44.954;10.068;2022-11-22T01:55:55;4.30;;;3.63;;
58360;SDS011;44164;44.954;10.068;2022-11-22T01:58:22;3.90;;;3.35;;
58360;SDS011;44164;44.954;10.068;2022-11-22T02:00:49;4.10;;;3.17;;
58360;SDS011;44164;44.954;10.068;2022-11-22T02:03:16;3.88;;;3.03;;
58360;SDS011;44164;44.954;10.068;2022-11-22T02:05:43;3.25;;;2.65;;
58360;SDS011;44164;44.954;10.068;2022-11-22T02:11:09;3.90;;;3.17;;
58360;SDS011;44164;44.954;10.068;2022-11-22T02:13:38;3.38;;;2.50;;
58360;SDS011;44164;44.954;10.068;2022-11-22T02:16:07;4.03;;;2.70;;
58360;SDS011;44164;44.954;10.068;2022-11-22T02:18:34;3.85;;;3.03;;
58360;SDS011;44164;44.954;10.068;2022-11-22T02:21:02;3.42;;;3.03;;
58360;SDS011;44164;44.954;10.068;2022-11-22T02:26:08;4.32;;;3.05;;
58360;SDS011;44164;44.954;10.068;2022-11-22T02:28:35;3.47;;;2.75;;
58360;SDS011;44164;44.954;10.068;2022-11-22T02:31:02;5.50;;;3.30;;
58360;SDS011;44164;44.954;10.068;2022-11-22T02:33:28;4.07;;;2.70;;
58360;SDS011;44164;44.954;10.068;2022-11-22T02:35:55;3.30;;;2.60;;
58360;SDS011;44164;44.954;10.068;2022-11-22T02:38:22;3.55;;;2.78;;
58360;SDS011;44164;44.954;10.068;2022-11-22T02:43:37;3.72;;;3.00;;
58360;SDS011;44164;44.954;10.068;2022-11-22T02:46:05;3.80;;;3.30;;
58360;SDS011;44164;44.954;10.068;2022-11-22T02:48:32;3.45;;;2.47;;
58360;SDS011;44164;44.954;10.068;2022-11-22T02:50:58;3.70;;;2.67;;
58360;SDS011;44164;44.954;10.068;2022-11-22T02:53:24;3.22;;;2.67;;
58360;SDS011;44164;44.954;10.068;2022-11-22T02:55:50;3.83;;;2.85;;
58360;SDS011;44164;44.954;10.068;2022-11-22T02:58:16;3.83;;;2.67;;
58360;SDS011;44164;44.954;10.068;2022-11-22T03:00:43;3.88;;;2.88;;
58360;SDS011;44164;44.954;10.068;2022-11-22T03:03:09;3.85;;;2.78;;
58360;SDS011;44164;44.954;10.068;2022-11-22T03:05:35;3.67;;;2.75;;
58360;SDS011;44164;44.954;10.068;2022-11-22T03:08:01;3.30;;;2.47;;
58360;SDS011;44164;44.954;10.068;2022-11-22T03:10:27;3.30;;;2.75;;
58360;SDS011;44164;44.954;10.068;2022-11-22T03:12:53;2.95;;;2.30;;
58360;SDS011;44164;44.954;10.068;2022-11-22T03:15:19;4.07;;;2.90;;
58360;SDS011;44164;44.954;10.068;2022-11-22T03:17:45;4.15;;;2.42;;
58360;SDS011;44164;44.954;10.068;2022-11-22T03:20:11;3.55;;;2.55;;
58360;SDS011;44164;44.954;10.068;2022-11-22T03:22:37;4.15;;;3.05;;
58360;SDS011;44164;44.954;10.068;2022-11-22T03:25:03;2.92;;;2.15;;
58360;SDS011;44164;44.954;10.068;2022-11-22T03:27:30;3.72;;;2.58;;
58360;SDS011;44164;44.954;10.068;2022-11-22T03:29:56;3.75;;;2.60;;
58360;SDS011;44164;44.954;10.068;2022-11-22T03:32:22;2.65;;;2.10;;
58360;SDS011;44164;44.954;10.068;2022-11-22T03:34:48;3.42;;;2.58;;
58360;SDS011;44164;44.954;10.068;2022-11-22T03:37:14;4.70;;;2.45;;
58360;SDS011;44164;44.954;10.068;2022-11-22T03:39:40;3.13;;;2.22;;
58360;SDS011;44164;44.954;10.068;2022-11-22T03:42:06;2.63;;;2.05;;
58360;SDS011;44164;44.954;10.068;2022-11-22T03:44:32;2.13;;;1.70;;
58360;SDS011;44164;44.954;10.068;2022-11-22T03:46:58;3.58;;;2.60;;
58360;SDS011;44164;44.954;10.068;2022-11-22T03:49:24;2.78;;;2.35;;
58360;SDS011;44164;44.954;10.068;2022-11-22T03:51:51;2.78;;;2.22;;
58360;SDS011;44164;44.954;10.068;2022-11-22T03:54:17;3.88;;;2.45;;
58360;SDS011;44164;44.954;10.068;2022-11-22T03:56:43;2.88;;;2.30;;
58360;SDS011;44164;44.954;10.068;2022-11-22T03:59:09;3.13;;;2.35;;
58360;SDS011;44164;44.954;10.068;2022-11-22T04:01:35;3.15;;;2.40;;
58360;SDS011;44164;44.954;10.068;2022-11-22T04:04:01;2.97;;;2.30;;
58360;SDS011;44164;44.954;10.068;2022-11-22T04:06:27;2.85;;;2.10;;
58360;SDS011;44164;44.954;10.068;2022-11-22T04:08:53;2.83;;;2.05;;
58360;SDS011;44164;44.954;10.068;2022-11-22T04:11:19;3.47;;;2.20;;
58360;SDS011;44164;44.954;10.068;2022-11-22T04:13:45;3.42;;;2.50;;
58360;SDS011;44164;44.954;10.068;2022-11-22T04:16:34;3.72;;;2.35;;
58360;SDS011;44164;44.954;10.068;2022-11-22T04:19:00;3.88;;;2.05;;
58360;SDS011;44164;44.954;10.068;2022-11-22T04:21:26;3.20;;;2.25;;
58360;SDS011;44164;44.954;10.068;2022-11-22T04:23:59;3.15;;;2.30;;
58360;SDS011;44164;44.954;10.068;2022-11-22T04:26:44;3.47;;;2.30;;
58360;SDS011;44164;44.954;10.068;2022-11-22T04:29:11;3.38;;;2.30;;
58360;SDS011;44164;44.954;10.068;2022-11-22T04:31:37;2.63;;;2.08;;
58360;SDS011;44164;44.954;10.068;2022-11-22T04:34:22;3.15;;;2.20;;
58360;SDS011;44164;44.954;10.068;2022-11-22T04:36:48;2.70;;;1.90;;
58360;SDS011;44164;44.954;10.068;2022-11-22T04:39:14;3.67;;;2.40;;
58360;SDS011;44164;44.954;10.068;2022-11-22T04:41:40;2.60;;;2.10;;
58360;SDS011;44164;44.954;10.068;2022-11-22T04:44:07;4.70;;;2.53;;
58360;SDS011;44164;44.954;10.068;2022-11-22T04:46:53;3.10;;;2.25;;
58360;SDS011;44164;44.954;10.068;2022-11-22T04:49:19;2.20;;;1.88;;
58360;SDS011;44164;44.954;10.068;2022-11-22T04:51:45;2.83;;;2.08;;
58360;SDS011;44164;44.954;10.068;2022-11-22T04:54:30;2.72;;;2.17;;
58360;SDS011;44164;44.954;10.068;2022-11-22T04:56:56;3.22;;;2.08;;
58360;SDS011;44164;44.954;10.068;2022-11-22T04:59:22;2.65;;;2.15;;
58360;SDS011;44164;44.954;10.068;2022-11-22T05:01:48;3.15;;;2.05;;
58360;SDS011;44164;44.954;10.068;2022-11-22T05:04:14;3.20;;;2.30;;
58360;SDS011;44164;44.954;10.068;2022-11-22T05:06:41;2.78;;;2.10;;
58360;SDS011;44164;44.954;10.068;2022-11-22T05:09:07;3.35;;;2.00;;
58360;SDS011;44164;44.954;10.068;2022-11-22T05:11:33;2.83;;;2.05;;
58360;SDS011;44164;44.954;10.068;2022-11-22T05:14:00;2.75;;;1.92;;
58360;SDS011;44164;44.954;10.068;2022-11-22T05:16:26;2.63;;;2.00;;
58360;SDS011;44164;44.954;10.068;2022-11-22T05:18:52;3.38;;;2.20;;
58360;SDS011;44164;44.954;10.068;2022-11-22T05:21:24;2.30;;;1.85;;
58360;SDS011;44164;44.954;10.068;2022-11-22T05:23:51;3.03;;;2.22;;
58360;SDS011;44164;44.954;10.068;2022-11-22T05:26:21;3.00;;;1.98;;
58360;SDS011;44164;44.954;10.068;2022-11-22T05:28:51;2.40;;;1.67;;
58360;SDS011;44164;44.954;10.068;2022-11-22T05:31:18;2.90;;;2.00;;
58360;SDS011;44164;44.954;10.068;2022-11-22T05:33:49;2.15;;;1.73;;
58360;SDS011;44164;44.954;10.068;2022-11-22T05:36:16;3.05;;;2.28;;
58360;SDS011;44164;44.954;10.068;2022-11-22T05:38:43;2.90;;;1.70;;
58360;SDS011;44164;44.954;10.068;2022-11-22T05:41:10;2.85;;;1.80;;
58360;SDS011;44164;44.954;10.068;2022-11-22T05:43:37;2.45;;;1.60;;
58360;SDS011;44164;44.954;10.068;2022-11-22T05:46:07;3.00;;;2.10;;
58360;SDS011;44164;44.954;10.068;2022-11-22T05:48:34;2.35;;;1.63;;
58360;SDS011;44164;44.954;10.068;2022-11-22T05:51:11;2.35;;;1.67;;
58360;SDS011;44164;44.954;10.068;2022-11-22T05:53:39;2.85;;;1.83;;
58360;SDS011;44164;44.954;10.068;2022-11-22T05:56:06;2.20;;;1.70;;
58360;SDS011;44164;44.954;10.068;2022-11-22T05:58:33;2.30;;;1.50;;
58360;SDS011;44164;44.954;10.068;2022-11-22T06:01:18;2.28;;;1.63;;
58360;SDS011;44164;44.954;10.068;2022-11-22T06:03:46;2.25;;;1.52;;
58360;SDS011;44164;44.954;10.068;2022-11-22T06:06:13;2.15;;;1.70;;
58360;SDS011;44164;44.954;10.068;2022-11-22T06:08:40;2.58;;;1.88;;
58360;SDS011;44164;44.954;10.068;2022-11-22T06:11:18;2.50;;;1.77;;
58360;SDS011;44164;44.954;10.068;2022-11-22T06:13:46;2.95;;;1.85;;
58360;SDS011;44164;44.954;10.068;2022-11-22T06:16:13;2.35;;;1.80;;
58360;SDS011;44164;44.954;10.068;2022-11-22T06:18:39;3.05;;;2.00;;
58360;SDS011;44164;44.954;10.068;2022-11-22T06:21:07;2.47;;;1.63;;
58360;SDS011;44164;44.954;10.068;2022-11-22T06:23:37;2.30;;;1.77;;
58360;SDS011;44164;44.954;10.068;2022-11-22T06:26:07;2.47;;;1.98;;
58360;SDS011;44164;44.954;10.068;2022-11-22T06:28:35;4.45;;;2.03;;
58360;SDS011;44164;44.954;10.068;2022-11-22T06:31:09;4.28;;;1.90;;
58360;SDS011;44164;44.954;10.068;2022-11-22T06:33:37;2.65;;;1.65;;
58360;SDS011;44164;44.954;10.068;2022-11-22T06:36:04;3.88;;;1.60;;
58360;SDS011;44164;44.954;10.068;2022-11-22T06:38:32;2.72;;;1.92;;
58360;SDS011;44164;44.954;10.068;2022-11-22T06:41:02;2.72;;;1.70;;
58360;SDS011;44164;44.954;10.068;2022-11-22T06:43:30;4.07;;;1.38;;
58360;SDS011;44164;44.954;10.068;2022-11-22T06:45:57;2.80;;;1.60;;
58360;SDS011;44164;44.954;10.068;2022-11-22T06:48:25;3.45;;;1.48;;
58360;SDS011;44164;44.954;10.068;2022-11-22T06:50:56;2.38;;;1.30;;
58360;SDS011;44164;44.954;10.068;2022-11-22T06:53:36;2.20;;;1.60;;
58360;SDS011;44164;44.954;10.068;2022-11-22T06:56:06;2.45;;;1.70;;
58360;SDS011;44164;44.954;10.068;2022-11-22T06:58:33;2.53;;;1.40;;
58360;SDS011;44164;44.954;10.068;2022-11-22T07:01:00;2.30;;;1.45;;
58360;SDS011;44164;44.954;10.068;2022-11-22T07:03:29;2.92;;;1.80;;
58360;SDS011;44164;44.954;10.068;2022-11-22T07:05:55;2.72;;;1.50;;
58360;SDS011;44164;44.954;10.068;2022-11-22T07:08:22;3.70;;;1.40;;
58360;SDS011;44164;44.954;10.068;2022-11-22T07:10:48;2.45;;;1.65;;
58360;SDS011;44164;44.954;10.068;2022-11-22T07:13:14;2.78;;;1.40;;
58360;SDS011;44164;44.954;10.068;2022-11-22T07:15:41;2.75;;;1.50;;
58360;SDS011;44164;44.954;10.068;2022-11-22T07:18:07;2.00;;;1.52;;
58360;SDS011;44164;44.954;10.068;2022-11-22T07:20:33;3.65;;;1.50;;
58360;SDS011;44164;44.954;10.068;2022-11-22T07:23:00;2.05;;;1.30;;
58360;SDS011;44164;44.954;10.068;2022-11-22T07:25:26;4.10;;;1.20;;
58360;SDS011;44164;44.954;10.068;2022-11-22T07:27:52;2.25;;;1.30;;
58360;SDS011;44164;44.954;10.068;2022-11-22T07:30:18;1.90;;;1.30;;
58360;SDS011;44164;44.954;10.068;2022-11-22T07:32:47;2.58;;;1.50;;
58360;SDS011;44164;44.954;10.068;2022-11-22T07:35:13;3.60;;;1.25;;
58360;SDS011;44164;44.954;10.068;2022-11-22T07:37:40;3.70;;;1.67;;
58360;SDS011;44164;44.954;10.068;2022-11-22T07:40:06;2.25;;;1.15;;
58360;SDS011;44164;44.954;10.068;2022-11-22T07:42:33;2.33;;;1.30;;
58360;SDS011;44164;44.954;10.068;2022-11-22T07:44:59;2.85;;;1.10;;
58360;SDS011;44164;44.954;10.068;2022-11-22T07:47:25;2.42;;;1.63;;
58360;SDS011;44164;44.954;10.068;2022-11-22T07:49:51;2.20;;;1.05;;
58360;SDS011;44164;44.954;10.068;2022-11-22T07:52:17;2.83;;;1.20;;
58360;SDS011;44164;44.954;10.068;2022-11-22T07:54:43;2.17;;;1.25;;
58360;SDS011;44164;44.954;10.068;2022-11-22T07:57:09;1.73;;;1.00;;
58360;SDS011;44164;44.954;10.068;2022-11-22T07:59:35;1.70;;;1.20;;
58360;SDS011;44164;44.954;10.068;2022-11-22T08:02:01;4.50;;;1.25;;
58360;SDS011;44164;44.954;10.068;2022-11-22T08:04:28;2.55;;;1.38;;
58360;SDS011;44164;44.954;10.068;2022-11-22T08:06:54;2.15;;;1.33;;
58360;SDS011;44164;44.954;10.068;2022-11-22T08:09:20;2.97;;;1.42;;
58360;SDS011;44164;44.954;10.068;2022-11-22T08:11:46;2.47;;;1.33;;
58360;SDS011;44164;44.954;10.068;2022-11-22T08:14:12;1.88;;;1.17;;
58360;SDS011;44164;44.954;10.068;2022-11-22T08:16:38;2.42;;;1.20;;
58360;SDS011;44164;44.954;10.068;2022-11-22T08:19:04;2.00;;;1.15;;
58360;SDS011;44164;44.954;10.068;2022-11-22T08:21:30;2.30;;;1.20;;
58360;SDS011;44164;44.954;10.068;2022-11-22T08:23:57;2.22;;;1.00;;
58360;SDS011;44164;44.954;10.068;2022-11-22T08:26:23;1.75;;;1.10;;
58360;SDS011;44164;44.954;10.068;2022-11-22T08:28:49;3.10;;;1.40;;
58360;SDS011;44164;44.954;10.068;2022-11-22T08:31:16;2.05;;;1.10;;
58360;SDS011;44164;44.954;10.068;2022-11-22T08:33:46;6.80;;;1.25;;
58360;SDS011;44164;44.954;10.068;2022-11-22T08:36:13;1.73;;;1.07;;
58360;SDS011;44164;44.954;10.068;2022-11-22T08:38:40;4.10;;;1.50;;
58360;SDS011;44164;44.954;10.068;2022-11-22T08:41:06;2.95;;;1.42;;
58360;SDS011;44164;44.954;10.068;2022-11-22T08:43:32;2.67;;;0.90;;
58360;SDS011;44164;44.954;10.068;2022-11-22T08:45:58;2.88;;;1.20;;
58360;SDS011;44164;44.954;10.068;2022-11-22T08:48:28;1.70;;;1.10;;
58360;SDS011;44164;44.954;10.068;2022-11-22T08:50:56;1.80;;;1.10;;
58360;SDS011;44164;44.954;10.068;2022-11-22T08:55:50;1.83;;;1.13;;
58360;SDS011;44164;44.954;10.068;2022-11-22T08:58:16;1.90;;;0.90;;
58360;SDS011;44164;44.954;10.068;2022-11-22T09:00:42;2.10;;;1.27;;
58360;SDS011;44164;44.954;10.068;2022-11-22T09:03:09;2.05;;;1.15;;
58360;SDS011;44164;44.954;10.068;2022-11-22T09:05:35;2.25;;;1.00;;
58360;SDS011;44164;44.954;10.068;2022-11-22T09:08:01;2.00;;;0.85;;
58360;SDS011;44164;44.954;10.068;2022-11-22T09:10:28;1.60;;;1.08;;
58360;SDS011;44164;44.954;10.068;2022-11-22T09:12:54;1.40;;;0.93;;
58360;SDS011;44164;44.954;10.068;2022-11-22T09:15:20;1.83;;;1.00;;
58360;SDS011;44164;44.954;10.068;2022-11-22T09:17:46;1.48;;;0.90;;
58360;SDS011;44164;44.954;10.068;2022-11-22T09:20:12;1.55;;;1.00;;
58360;SDS011;44164;44.954;10.068;2022-11-22T09:22:39;1.25;;;0.80;;
58360;SDS011;44164;44.954;10.068;2022-11-22T09:25:05;1.80;;;1.00;;
58360;SDS011;44164;44.954;10.068;2022-11-22T09:27:32;1.40;;;0.75;;
58360;SDS011;44164;44.954;10.068;2022-11-22T09:29:58;1.70;;;0.93;;
58360;SDS011;44164;44.954;10.068;2022-11-22T09:32:24;1.65;;;1.00;;
58360;SDS011;44164;44.954;10.068;2022-11-22T09:34:50;1.65;;;0.93;;
58360;SDS011;44164;44.954;10.068;2022-11-22T09:37:17;1.98;;;1.08;;
58360;SDS011;44164;44.954;10.068;2022-11-22T09:39:47;1.58;;;0.90;;
58360;SDS011;44164;44.954;10.068;2022-11-22T09:45:00;2.78;;;1.00;;
58360;SDS011;44164;44.954;10.068;2022-11-22T09:47:37;1.60;;;0.90;;
58360;SDS011;44164;44.954;10.068;2022-11-22T09:55:23;2.53;;;1.20;;
58360;SDS011;44164;44.954;10.068;2022-11-22T09:58:05;1.45;;;0.90;;
58360;SDS011;44164;44.954;10.068;2022-11-22T10:00:33;2.03;;;1.10;;
58360;SDS011;44164;44.954;10.068;2022-11-22T10:03:10;1.35;;;0.70;;
58360;SDS011;44164;44.954;10.068;2022-11-22T10:05:55;1.60;;;0.95;;
58360;SDS011;44164;44.954;10.068;2022-11-22T10:08:44;1.80;;;0.88;;
58360;SDS011;44164;44.954;10.068;2022-11-22T10:13:51;1.30;;;0.80;;
58360;SDS011;44164;44.954;10.068;2022-11-22T10:16:24;1.58;;;0.82;;
58360;SDS011;44164;44.954;10.068;2022-11-22T10:18:55;2.03;;;0.90;;
58360;SDS011;44164;44.954;10.068;2022-11-22T10:21:25;1.40;;;0.90;;
58360;SDS011;44164;44.954;10.068;2022-11-22T10:23:51;2.42;;;1.00;;
58360;SDS011;44164;44.954;10.068;2022-11-22T10:26:25;1.60;;;1.02;;
58360;SDS011;44164;44.954;10.068;2022-11-22T10:28:56;1.60;;;0.88;;
58360;SDS011;44164;44.954;10.068;2022-11-22T10:34:03;1.10;;;0.75;;
58360;SDS011;44164;44.954;10.068;2022-11-22T10:43:20;1.60;;;0.80;;
58360;SDS011;44164;44.954;10.068;2022-11-22T10:50:38;1.15;;;0.60;;
58360;SDS011;44164;44.954;10.068;2022-11-22T10:56:13;1.75;;;0.90;;
58360;SDS011;44164;44.954;10.068;2022-11-22T11:04:18;1.98;;;1.02;;
58360;SDS011;44164;44.954;10.068;2022-11-22T11:06:49;1.00;;;0.70;;
58360;SDS011;44164;44.954;10.068;2022-11-22T11:09:33;1.67;;;0.90;;
58360;SDS011;44164;44.954;10.068;2022-11-22T11:12:05;1.90;;;0.93;;
58360;SDS011;44164;44.954;10.068;2022-11-22T11:14:59;1.45;;;0.80;;
58360;SDS011;44164;44.954;10.068;2022-11-22T11:17:27;1.45;;;1.10;;
58360;SDS011;44164;44.954;10.068;2022-11-22T11:19:56;3.70;;;1.02;;
58360;SDS011;44164;44.954;10.068;2022-11-22T11:22:24;2.22;;;0.95;;
58360;SDS011;44164;44.954;10.068;2022-11-22T11:24:51;2.10;;;0.90;;
58360;SDS011;44164;44.954;10.068;2022-11-22T11:27:17;2.38;;;1.13;;
58360;SDS011;44164;44.954;10.068;2022-11-22T11:29:45;2.38;;;1.15;;
58360;SDS011;44164;44.954;10.068;2022-11-22T11:32:15;2.20;;;0.93;;
58360;SDS011;44164;44.954;10.068;2022-11-22T11:34:59;1.65;;;1.02;;
58360;SDS011;44164;44.954;10.068;2022-11-22T11:37:31;2.15;;;0.90;;
58360;SDS011;44164;44.954;10.068;2022-11-22T11:39:58;3.08;;;1.27;;
58360;SDS011;44164;44.954;10.068;2022-11-22T11:42:28;1.80;;;1.15;;
58360;SDS011;44164;44.954;10.068;2022-11-22T11:47:46;1.40;;;0.90;;
58360;SDS011;44164;44.954;10.068;2022-11-22T11:50:19;2.58;;;0.90;;
58360;SDS011;44164;44.954;10.068;2022-11-22T11:55:47;1.58;;;0.80;;
58360;SDS011;44164;44.954;10.068;2022-11-22T11:58:22;1.52;;;0.85;;
58360;SDS011;44164;44.954;10.068;2022-11-22T12:00:49;1.70;;;1.00;;
58360;SDS011;44164;44.954;10.068;2022-11-22T12:03:16;2.05;;;1.02;;
58360;SDS011;44164;44.954;10.068;2022-11-22T12:05:44;1.70;;;0.80;;
58360;SDS011;44164;44.954;10.068;2022-11-22T12:08:29;1.88;;;1.17;;
58360;SDS011;44164;44.954;10.068;2022-11-22T12:11:06;2.17;;;1.00;;
58360;SDS011;44164;44.954;10.068;2022-11-22T12:13:44;2.05;;;1.00;;
58360;SDS011;44164;44.954;10.068;2022-11-22T12:16:20;1.50;;;0.90;;
58360;SDS011;44164;44.954;10.068;2022-11-22T12:26:59;3.38;;;1.27;;
58360;SDS011;44164;44.954;10.068;2022-11-22T12:29:25;1.70;;;0.85;;
58360;SDS011;44164;44.954;10.068;2022-11-22T12:34:57;3.10;;;1.02;;
58360;SDS011;44164;44.954;10.068;2022-11-22T12:37:27;1.70;;;0.93;;
58360;SDS011;44164;44.954;10.068;2022-11-22T12:39:57;1.83;;;0.85;;
58360;SDS011;44164;44.954;10.068;2022-11-22T12:44:53;2.10;;;1.00;;
58360;SDS011;44164;44.954;10.068;2022-11-22T12:47:24;4.28;;;1.10;;
58360;SDS011;44164;44.954;10.068;2022-11-22T12:49:59;2.53;;;1.00;;
58360;SDS011;44164;44.954;10.068;2022-11-22T12:52:51;2.60;;;0.93;;
58360;SDS011;44164;44.954;10.068;2022-11-22T12:58:00;3.75;;;1.00;;
58360;SDS011;44164;44.954;10.068;2022-11-22T13:00:34;1.02;;;0.68;;
58360;SDS011;44164;44.954;10.068;2022-11-22T13:03:10;3.35;;;0.90;;
58360;SDS011;44164;44.954;10.068;2022-11-22T13:06:11;1.63;;;1.05;;
58360;SDS011;44164;44.954;10.068;2022-11-22T13:08:34;3.03;;;1.23;;
58360;SDS011;44164;44.954;10.068;2022-11-22T13:11:20;2.58;;;0.90;;
58360;SDS011;44164;44.954;10.068;2022-11-22T13:13:55;2.13;;;0.90;;
58360;SDS011;44164;44.954;10.068;2022-11-22T13:16:25;3.58;;;0.98;;
58360;SDS011;44164;44.954;10.068;2022-11-22T13:29:57;2.83;;;1.10;;
58360;SDS011;44164;44.954;10.068;2022-11-22T13:37:28;1.20;;;0.75;;
58360;SDS011;44164;44.954;10.068;2022-11-22T13:39:55;1.63;;;0.90;;
58360;SDS011;44164;44.954;10.068;2022-11-22T13:42:22;3.83;;;1.00;;
58360;SDS011;44164;44.954;10.068;2022-11-22T13:49:59;3.03;;;0.90;;
58360;SDS011;44164;44.954;10.068;2022-11-22T13:52:26;3.00;;;0.98;;
58360;SDS011;44164;44.954;10.068;2022-11-22T13:55:31;2.33;;;1.00;;
58360;SDS011;44164;44.954;10.068;2022-11-22T14:00:50;3.50;;;1.02;;
58360;SDS011;44164;44.954;10.068;2022-11-22T14:05:58;1.60;;;0.90;;
58360;SDS011;44164;44.954;10.068;2022-11-22T14:08:27;1.95;;;0.90;;
58360;SDS011;44164;44.954;10.068;2022-11-22T14:18:39;2.42;;;1.05;;
58360;SDS011;44164;44.954;10.068;2022-11-22T14:27:27;1.88;;;0.85;;
58360;SDS011;44164;44.954;10.068;2022-11-22T14:30:20;2.67;;;1.17;;
58360;SDS011;44164;44.954;10.068;2022-11-22T14:32:51;2.35;;;1.15;;
58360;SDS011;44164;44.954;10.068;2022-11-22T14:35:38;4.03;;;1.02;;
58360;SDS011;44164;44.954;10.068;2022-11-22T14:38:34;1.60;;;0.70;;
58360;SDS011;44164;44.954;10.068;2022-11-22T14:43:59;2.75;;;1.02;;
58360;SDS011;44164;44.954;10.068;2022-11-22T14:46:34;3.50;;;1.40;;
58360;SDS011;44164;44.954;10.068;2022-11-22T14:49:05;1.38;;;0.77;;
58360;SDS011;44164;44.954;10.068;2022-11-22T14:51:37;2.13;;;0.95;;
58360;SDS011;44164;44.954;10.068;2022-11-22T14:54:14;3.83;;;1.10;;
58360;SDS011;44164;44.954;10.068;2022-11-22T14:56:46;1.45;;;0.80;;
58360;SDS011;44164;44.954;10.068;2022-11-22T15:17:54;2.30;;;0.90;;
58360;SDS011;44164;44.954;10.068;2022-11-22T15:20:38;3.70;;;1.08;;
58360;SDS011;44164;44.954;10.068;2022-11-22T15:23:13;2.60;;;1.10;;
58360;SDS011;44164;44.954;10.068;2022-11-22T15:25:41;2.90;;;1.38;;
58360;SDS011;44164;44.954;10.068;2022-11-22T15:28:12;2.03;;;0.93;;
58360;SDS011;44164;44.954;10.068;2022-11-22T15:30:43;1.58;;;0.80;;
58360;SDS011;44164;44.954;10.068;2022-11-22T15:33:16;2.92;;;1.10;;
58360;SDS011;44164;44.954;10.068;2022-11-22T15:35:47;2.25;;;1.20;;
58360;SDS011;44164;44.954;10.068;2022-11-22T15:38:38;4.28;;;1.38;;
58360;SDS011;44164;44.954;10.068;2022-11-22T15:41:20;2.20;;;1.10;;
58360;SDS011;44164;44.954;10.068;2022-11-22T15:43:48;2.75;;;1.20;;
58360;SDS011;44164;44.954;10.068;2022-11-22T15:46:15;3.47;;;1.40;;
58360;SDS011;44164;44.954;10.068;2022-11-22T15:48:42;3.78;;;1.20;;
58360;SDS011;44164;44.954;10.068;2022-11-22T15:53:39;3.38;;;1.10;;
58360;SDS011;44164;44.954;10.068;2022-11-22T15:58:52;2.05;;;1.15;;
58360;SDS011;44164;44.954;10.068;2022-11-22T16:01:20;3.60;;;1.45;;
58360;SDS011;44164;44.954;10.068;2022-11-22T16:03:47;5.07;;;1.20;;
58360;SDS011;44164;44.954;10.068;2022-11-22T16:06:16;3.10;;;1.50;;
58360;SDS011;44164;44.954;10.068;2022-11-22T16:08:50;3.80;;;1.50;;
58360;SDS011;44164;44.954;10.068;2022-11-22T16:11:19;1.50;;;0.80;;
58360;SDS011;44164;44.954;10.068;2022-11-22T16:13:46;3.28;;;1.00;;
58360;SDS011;44164;44.954;10.068;2022-11-22T16:18:38;2.67;;;1.10;;
58360;SDS011;44164;44.954;10.068;2022-11-22T16:21:18;2.50;;;1.10;;
58360;SDS011;44164;44.954;10.068;2022-11-22T16:23:45;3.88;;;1.23;;
58360;SDS011;44164;44.954;10.068;2022-11-22T16:28:51;2.08;;;1.15;;
58360;SDS011;44164;44.954;10.068;2022-11-22T16:33:51;3.47;;;1.00;;
58360;SDS011;44164;44.954;10.068;2022-11-22T16:36:19;3.10;;;0.80;;
58360;SDS011;44164;44.954;10.068;2022-11-22T16:38:46;1.70;;;0.88;;
58360;SDS011;44164;44.954;10.068;2022-11-22T16:41:23;3.08;;;1.10;;
58360;SDS011;44164;44.954;10.068;2022-11-22T16:43:58;4.00;;;1.10;;
58360;SDS011;44164;44.954;10.068;2022-11-22T16:46:26;1.40;;;0.82;;
58360;SDS011;44164;44.954;10.068;2022-11-22T16:48:53;2.25;;;0.95;;
58360;SDS011;44164;44.954;10.068;2022-11-22T16:51:26;1.98;;;1.05;;
58360;SDS011;44164;44.954;10.068;2022-11-22T16:53:55;2.08;;;1.08;;
58360;SDS011;44164;44.954;10.068;2022-11-22T16:56:24;2.05;;;1.00;;
58360;SDS011;44164;44.954;10.068;2022-11-22T17:01:19;3.50;;;0.82;;
58360;SDS011;44164;44.954;10.068;2022-11-22T17:03:47;1.60;;;0.85;;
58360;SDS011;44164;44.954;10.068;2022-11-22T17:06:16;2.92;;;0.90;;
58360;SDS011;44164;44.954;10.068;2022-11-22T17:08:47;2.03;;;0.82;;
58360;SDS011;44164;44.954;10.068;2022-11-22T17:11:17;1.20;;;0.73;;
58360;SDS011;44164;44.954;10.068;2022-11-22T17:13:45;3.95;;;1.00;;
58360;SDS011;44164;44.954;10.068;2022-11-22T17:16:12;1.80;;;0.80;;
58360;SDS011;44164;44.954;10.068;2022-11-22T17:18:39;1.60;;;0.93;;
58360;SDS011;44164;44.954;10.068;2022-11-22T17:21:09;1.73;;;0.85;;
58360;SDS011;44164;44.954;10.068;2022-11-22T17:23:59;1.73;;;0.80;;
58360;SDS011;44164;44.954;10.068;2022-11-22T17:28:52;2.70;;;1.00;;
58360;SDS011;44164;44.954;10.068;2022-11-22T17:31:19;3.10;;;1.08;;